Baia De Setubal — CSYT5 — position and weather

sailwx.info

Track history (hours):
 
Tides and Currents Weather Stations Pressure Air Temp Water Temp Dewpoint Dewpoint Depression Visibility Wind Speed Wind Dir Waves Ship Positions

Baia De Setubal

Last reported at 2017-Nov-17 16:51 UTC. Time now 2017-Dec-14 10:19 UTC.
Position N 38°29' W 008°56'.
Warning: this ship's position is 26 days out of date.

Length 12 m.

Type: Pilot. MMSI: 263673848.

Date/timePositionNaut miles runAvg speedWind from/ knotsBaromVisibWave heightAir tempDewpointWater temp
2017-Nov-17 16:51N 38°29' W 008°56'2 6.8
2017-Nov-17 16:31N 38°27' W 008°58'5 9.4
2017-Nov-17 16:00N 38°26' W 009°04'2 0.6
2017-Nov-17 12:13N 38°26' W 009°07'0 0.0
2017-Nov-17 11:52N 38°26' W 009°07'0 0.0
2017-Nov-17 11:25N 38°26' W 009°07'1 2.9
2017-Nov-17 10:58N 38°25' W 009°06'1 0.1
2017-Nov-16 17:10N 38°26' W 009°07'0 0.0
2017-Nov-16 17:00N 38°26' W 009°07'  
2017-Nov-14 02:47N 38°26' W 009°07'0 0.0
2017-Nov-14 02:29N 38°26' W 009°07'0 0.0
2017-Nov-14 01:47N 38°26' W 009°07'0 0.0
2017-Nov-14 01:29N 38°26' W 009°07'0 0.0
2017-Nov-14 00:56N 38°26' W 009°07'0 0.0
2017-Nov-14 00:29N 38°26' W 009°07'0 0.0
2017-Nov-13 22:59N 38°26' W 009°07'  
Track history (hours):
 
Tides and Currents Weather Stations Pressure Air Temp Water Temp Dewpoint Dewpoint Depression Visibility Wind Speed Wind Dir Waves Ship Positions

Baia De Setubal

Last reported at 2017-Nov-17 16:51 UTC. Time now 2017-Dec-14 10:19 UTC.
Position N 38°29' W 008°56'.
Warning: this ship's position is 26 days out of date.

Length 12 m.

Type: Pilot. MMSI: 263673848.

Date/timePositionNaut miles runAvg speedWind from/ knotsBaromVisibWave heightAir tempDewpointWater temp
2017-Nov-17 16:51N 38°29' W 008°56'2 6.8
2017-Nov-17 16:31N 38°27' W 008°58'5 9.4
2017-Nov-17 16:00N 38°26' W 009°04'2 0.6
2017-Nov-17 12:13N 38°26' W 009°07'0 0.0
2017-Nov-17 11:52N 38°26' W 009°07'0 0.0
2017-Nov-17 11:25N 38°26' W 009°07'1 2.9
2017-Nov-17 10:58N 38°25' W 009°06'1 0.1
2017-Nov-16 17:10N 38°26' W 009°07'0 0.0
2017-Nov-16 17:00N 38°26' W 009°07'  
2017-Nov-14 02:47N 38°26' W 009°07'0 0.0
2017-Nov-14 02:29N 38°26' W 009°07'0 0.0
2017-Nov-14 01:47N 38°26' W 009°07'0 0.0
2017-Nov-14 01:29N 38°26' W 009°07'0 0.0
2017-Nov-14 00:56N 38°26' W 009°07'0 0.0
2017-Nov-14 00:29N 38°26' W 009°07'0 0.0
2017-Nov-13 22:59N 38°26' W 009°07'  

Dump ship's entire track history